createdAt,value
2019-06-07T00:03:57.668Z,10.08
2019-06-07T00:19:01.446Z,10.00
2019-06-07T00:34:05.038Z,10.20
2019-06-07T00:49:09.245Z,10.63
2019-06-07T01:04:13.252Z,10.55
2019-06-07T01:19:18.992Z,9.90
2019-06-07T01:34:26.800Z,10.38
2019-06-07T01:49:29.736Z,10.20
2019-06-07T02:19:37.494Z,9.83
2019-06-07T02:34:41.041Z,9.48
2019-06-07T02:49:44.839Z,9.58
2019-06-07T03:04:48.612Z,12.00
2019-06-07T03:19:54.175Z,9.53
2019-06-07T03:34:57.764Z,10.45
2019-06-07T03:50:01.331Z,8.65
2019-06-07T04:05:06.594Z,7.95
2019-06-07T04:20:10.308Z,16.77
2019-06-07T04:35:14.148Z,11.70
2019-06-07T04:50:17.909Z,14.40
2019-06-07T05:05:21.518Z,17.77
2019-06-07T05:20:25.177Z,13.45
2019-06-07T05:35:28.754Z,13.00
2019-06-07T05:50:43.663Z,14.33
2019-06-07T06:05:42.166Z,19.55
2019-06-07T06:21:05.021Z,13.80
2019-06-07T06:35:49.413Z,14.60
2019-06-07T06:50:53.613Z,13.38
2019-06-07T07:06:00.107Z,16.37
2019-06-07T07:21:04.194Z,11.25
2019-06-07T07:36:28.079Z,10.40
2019-06-07T07:51:13.525Z,11.57
2019-06-07T08:06:17.081Z,12.93
2019-06-07T08:21:25.302Z,12.77
2019-06-07T08:36:41.468Z,13.30
2019-06-07T08:51:31.293Z,15.53
2019-06-07T09:07:02.453Z,16.45
2019-06-07T09:21:40.167Z,15.25
2019-06-07T09:36:43.734Z,12.20
2019-06-07T09:51:47.347Z,14.00
2019-06-07T10:06:50.980Z,12.83
2019-06-07T10:21:54.665Z,11.88
2019-06-07T10:36:58.265Z,11.85
2019-06-07T10:52:03.418Z,11.88
2019-06-07T11:07:08.208Z,11.57
2019-06-07T11:22:14.174Z,10.95
2019-06-07T11:37:20.647Z,11.67
2019-06-07T11:52:24.239Z,11.75
2019-06-07T12:07:28.126Z,12.68
2019-06-07T12:22:31.688Z,11.63
2019-06-07T12:37:43.670Z,12.75
2019-06-07T12:52:40.551Z,12.93
2019-06-07T13:07:44.117Z,14.00
2019-06-07T13:22:47.711Z,12.35
2019-06-07T13:37:51.288Z,12.00
2019-06-07T13:52:54.915Z,13.60
2019-06-07T14:07:58.546Z,13.38
2019-06-07T14:23:02.095Z,13.65
2019-06-07T14:38:05.681Z,12.23
2019-06-07T14:53:09.264Z,14.10
2019-06-07T15:08:12.825Z,14.18
2019-06-07T15:23:16.392Z,13.95
2019-06-07T15:38:19.939Z,12.30
2019-06-07T15:53:23.908Z,11.28
2019-06-07T16:08:29.878Z,13.48
2019-06-07T16:23:33.693Z,12.28
2019-06-07T16:38:38.057Z,12.20
2019-06-07T16:53:42.371Z,12.47
2019-06-07T17:08:46.378Z,12.57
2019-06-07T17:23:49.946Z,12.47
2019-06-07T17:38:53.504Z,12.80
2019-06-07T17:53:57.092Z,14.47
2019-06-07T18:09:00.794Z,13.30
2019-06-07T18:24:05.711Z,13.50
2019-06-07T18:39:10.185Z,16.40
2019-06-07T18:54:14.784Z,16.05
2019-06-07T19:09:18.517Z,14.80
2019-06-07T19:24:22.088Z,17.57
2019-06-07T19:39:26.256Z,14.90
2019-06-07T19:54:29.899Z,14.15
2019-06-07T20:09:33.510Z,16.48
2019-06-07T20:24:38.180Z,13.98
2019-06-07T20:39:41.933Z,13.90
2019-06-07T20:54:45.559Z,14.20
2019-06-07T21:09:49.138Z,15.03
2019-06-07T21:24:52.704Z,15.13
2019-06-07T21:39:56.425Z,15.25
2019-06-07T21:54:59.987Z,16.62
2019-06-07T22:10:05.921Z,16.23
2019-06-07T22:25:11.065Z,16.17
2019-06-07T22:40:15.073Z,17.33
2019-06-07T22:55:18.655Z,16.42
2019-06-07T23:10:22.398Z,19.27
2019-06-07T23:25:26.010Z,18.45
2019-06-07T23:40:29.846Z,16.80
2019-06-07T23:55:33.435Z,16.55
